createdAt,value
2022-11-05T00:00:55.008Z,100.00
2022-11-05T00:03:44.635Z,100.00
2022-11-05T00:06:31.107Z,100.00
2022-11-05T00:09:03.149Z,100.00
2022-11-05T00:11:49.978Z,100.00
2022-11-05T00:14:37.701Z,100.00
2022-11-05T00:17:07.560Z,100.00
2022-11-05T00:19:38.655Z,100.00
2022-11-05T00:22:28.899Z,100.00
2022-11-05T00:25:16.604Z,100.00
2022-11-05T00:27:46.453Z,100.00
2022-11-05T00:30:18.180Z,100.00
2022-11-05T00:32:51.581Z,100.00
2022-11-05T00:35:23.017Z,100.00
2022-11-05T00:37:56.195Z,100.00
2022-11-05T00:40:24.869Z,100.00
2022-11-05T00:43:11.385Z,100.00
2022-11-05T00:45:41.106Z,100.00
2022-11-05T00:48:28.600Z,100.00
2022-11-05T00:50:57.217Z,100.00
2022-11-05T00:53:27.407Z,100.00
2022-11-05T00:55:56.195Z,100.00
2022-11-05T00:58:29.175Z,100.00
2022-11-05T01:01:01.783Z,100.00
2022-11-05T01:03:37.770Z,100.00
2022-11-05T01:06:13.675Z,100.00
2022-11-05T01:08:47.097Z,100.00
2022-11-05T01:11:22.033Z,100.00
2022-11-05T01:13:50.672Z,100.00
2022-11-05T01:16:19.375Z,100.00
2022-11-05T01:18:48.174Z,100.00
2022-11-05T01:21:16.864Z,100.00
2022-11-05T01:23:49.087Z,100.00
2022-11-05T01:26:20.488Z,100.00
2022-11-05T01:28:56.746Z,100.00
2022-11-05T01:31:29.155Z,100.00
2022-11-05T01:33:57.952Z,100.00
2022-11-05T01:36:26.662Z,100.00
2022-11-05T01:38:55.372Z,100.00
2022-11-05T01:41:23.970Z,100.00
2022-11-05T01:43:59.703Z,100.00
2022-11-05T01:46:37.048Z,100.00
2022-11-05T01:49:20.617Z,100.00
2022-11-05T01:51:49.971Z,100.00
2022-11-05T01:54:22.055Z,100.00
2022-11-05T01:56:53.647Z,100.00
2022-11-05T01:59:25.332Z,100.00
2022-11-05T02:01:55.814Z,100.00
2022-11-05T02:04:39.331Z,100.00
2022-11-05T02:07:10.431Z,100.00
2022-11-05T02:09:42.130Z,100.00
2022-11-05T02:12:14.252Z,100.00
2022-11-05T02:14:43.070Z,100.00
2022-11-05T02:17:14.931Z,100.00
2022-11-05T02:19:49.338Z,100.00
2022-11-05T02:22:45.191Z,100.00
2022-11-05T02:25:35.912Z,100.00
2022-11-05T02:28:09.985Z,100.00
2022-11-05T02:30:50.572Z,100.00
2022-11-05T02:33:52.083Z,100.00
2022-11-05T02:36:26.241Z,100.00
2022-11-05T02:39:25.690Z,100.00
2022-11-05T02:42:05.241Z,100.00
2022-11-05T02:44:53.867Z,100.00
2022-11-05T02:47:44.762Z,100.00
2022-11-05T02:50:36.837Z,100.00
2022-11-05T02:53:11.282Z,100.00
2022-11-05T02:55:51.863Z,100.00
2022-11-05T02:58:20.940Z,100.00
2022-11-05T03:00:59.838Z,100.00
2022-11-05T03:03:33.798Z,100.00
2022-11-05T03:06:41.429Z,100.00
2022-11-05T03:09:28.558Z,100.00
2022-11-05T03:12:18.981Z,100.00
2022-11-05T03:14:55.398Z,100.00
2022-11-05T03:17:29.883Z,100.00
2022-11-05T03:20:04.389Z,100.00
2022-11-05T03:22:37.683Z,100.00
2022-11-05T03:25:09.333Z,100.00
2022-11-05T03:27:41.037Z,100.00
2022-11-05T03:30:13.719Z,100.00
2022-11-05T03:32:48.778Z,100.00
2022-11-05T03:35:33.012Z,100.00
2022-11-05T03:38:08.578Z,100.00
2022-11-05T03:40:40.301Z,100.00
2022-11-05T03:43:17.333Z,100.00
2022-11-05T03:45:52.998Z,100.00
2022-11-05T03:48:23.817Z,100.00
2022-11-05T03:51:07.844Z,100.00
2022-11-05T03:53:42.133Z,100.00
2022-11-05T03:56:29.970Z,100.00
2022-11-05T03:59:02.436Z,100.00
2022-11-05T04:01:33.717Z,100.00
2022-11-05T04:04:04.501Z,100.00
2022-11-05T04:10:02.208Z,100.00
2022-11-05T04:12:50.987Z,100.00
2022-11-05T04:15:24.468Z,100.00
2022-11-05T04:17:55.012Z,100.00
2022-11-05T04:20:45.920Z,100.00
2022-11-05T04:23:33.777Z,100.00
2022-11-05T04:26:02.497Z,100.00
2022-11-05T04:28:32.901Z,100.00
2022-11-05T04:31:07.785Z,100.00
2022-11-05T04:33:45.325Z,100.00
2022-11-05T04:36:17.134Z,100.00
2022-11-05T04:38:46.787Z,100.00
2022-11-05T04:41:28.045Z,100.00
2022-11-05T04:43:56.547Z,100.00
2022-11-05T04:46:25.336Z,100.00
2022-11-05T04:48:53.991Z,100.00
2022-11-05T04:51:25.001Z,100.00
2022-11-05T04:53:53.791Z,100.00
2022-11-05T04:56:27.938Z,100.00
2022-11-05T04:58:56.656Z,100.00
2022-11-05T05:01:27.448Z,100.00
2022-11-05T05:03:56.658Z,100.00
2022-11-05T05:06:26.275Z,100.00
2022-11-05T05:08:54.932Z,100.00
2022-11-05T05:11:24.530Z,100.00
2022-11-05T05:13:53.148Z,100.00
2022-11-05T05:16:24.754Z,100.00
2022-11-05T05:18:53.646Z,100.00
2022-11-05T05:21:42.202Z,100.00
2022-11-05T05:24:19.535Z,100.00
2022-11-05T05:26:50.203Z,100.00
2022-11-05T05:29:22.688Z,100.00
2022-11-05T05:31:51.327Z,100.00
2022-11-05T05:34:21.614Z,100.00
2022-11-05T05:36:50.204Z,100.00
2022-11-05T05:39:18.802Z,100.00
2022-11-05T05:41:47.423Z,100.00
2022-11-05T05:44:16.103Z,100.00
2022-11-05T05:46:44.728Z,100.00
2022-11-05T05:49:16.201Z,100.00
2022-11-05T05:51:46.358Z,100.00
2022-11-05T05:54:15.091Z,100.00
2022-11-05T05:56:52.199Z,100.00
2022-11-05T05:59:20.855Z,100.00
2022-11-05T06:01:49.666Z,100.00
2022-11-05T06:04:18.302Z,100.00
2022-11-05T06:06:47.011Z,100.00
2022-11-05T06:09:20.053Z,100.00
2022-11-05T06:11:48.694Z,100.00
2022-11-05T06:17:04.905Z,100.00
2022-11-05T06:19:33.518Z,100.00
2022-11-05T06:22:02.353Z,100.00
2022-11-05T06:24:32.037Z,100.00
2022-11-05T06:27:23.037Z,100.00
2022-11-05T06:29:52.066Z,100.00
2022-11-05T06:32:23.840Z,100.00
2022-11-05T06:34:52.816Z,100.00
2022-11-05T06:37:27.685Z,100.00
2022-11-05T06:40:01.730Z,100.00
2022-11-05T06:42:30.869Z,100.00
2022-11-05T06:45:02.419Z,100.00
2022-11-05T06:47:31.628Z,100.00
2022-11-05T06:50:02.055Z,100.00
2022-11-05T06:52:40.795Z,100.00
2022-11-05T06:55:08.858Z,100.00
2022-11-05T06:57:39.171Z,100.00
2022-11-05T07:00:09.257Z,100.00
2022-11-05T07:02:38.212Z,100.00
2022-11-05T07:05:15.678Z,100.00
2022-11-05T07:07:47.753Z,100.00
2022-11-05T07:10:19.601Z,100.00
2022-11-05T07:13:08.353Z,100.00
2022-11-05T07:15:40.847Z,100.00
2022-11-05T07:18:11.278Z,100.00
2022-11-05T07:20:41.619Z,100.00
2022-11-05T07:23:16.092Z,100.00
2022-11-05T07:28:47.043Z,100.00
2022-11-05T07:31:17.482Z,100.00
2022-11-05T07:33:53.977Z,100.00
2022-11-05T07:36:27.389Z,100.00
2022-11-05T07:39:00.369Z,100.00
2022-11-05T07:47:18.800Z,100.00
2022-11-05T07:49:49.399Z,100.00
2022-11-05T07:52:58.767Z,100.00
2022-11-05T07:55:36.616Z,100.00
2022-11-05T08:10:54.157Z,100.00
2022-11-05T08:13:57.122Z,100.00
2022-11-05T08:19:40.042Z,100.00
2022-11-05T08:22:18.072Z,100.00
2022-11-05T08:24:47.033Z,100.00
2022-11-05T08:27:57.004Z,100.00
2022-11-05T08:30:49.171Z,100.00
2022-11-05T08:33:20.629Z,100.00
2022-11-05T08:39:10.627Z,100.00
2022-11-05T08:45:23.704Z,100.00
2022-11-05T08:51:00.303Z,100.00
2022-11-05T08:53:39.120Z,100.00
2022-11-05T08:56:07.054Z,100.00
2022-11-05T08:59:03.442Z,100.00
2022-11-05T09:01:36.180Z,100.00
2022-11-05T09:10:30.686Z,100.00
2022-11-05T09:13:17.896Z,100.00
2022-11-05T09:15:53.231Z,100.00
2022-11-05T09:18:28.143Z,100.00
2022-11-05T09:20:58.667Z,100.00
2022-11-05T09:23:41.415Z,100.00
2022-11-05T09:26:02.883Z,100.00
2022-11-05T09:28:32.832Z,100.00
2022-11-05T09:31:06.398Z,100.00
2022-11-05T09:33:37.669Z,100.00
2022-11-05T09:36:12.613Z,100.00
2022-11-05T09:41:48.266Z,100.00
2022-11-05T09:44:56.068Z,100.00
2022-11-05T09:54:05.850Z,100.00
2022-11-05T09:57:10.937Z,100.00
2022-11-05T10:03:01.077Z,100.00
2022-11-05T10:06:20.563Z,100.00
2022-11-05T10:11:57.752Z,100.00
2022-11-05T10:17:53.958Z,100.00
2022-11-05T10:29:36.735Z,100.00
2022-11-05T10:32:21.558Z,87.56
2022-11-05T10:35:03.086Z,82.17
2022-11-05T10:49:09.134Z,77.80
2022-11-05T10:52:03.651Z,77.16
2022-11-05T11:01:55.113Z,78.49
2022-11-05T11:13:38.208Z,72.42
2022-11-05T11:16:31.156Z,67.16
2022-11-05T11:19:07.849Z,59.86
2022-11-05T11:25:18.509Z,59.34
2022-11-05T11:30:36.311Z,58.30
2022-11-05T11:33:15.489Z,58.38
2022-11-05T11:35:48.543Z,59.31
2022-11-05T11:44:52.283Z,57.81
2022-11-05T11:57:54.968Z,54.88
2022-11-05T12:07:43.821Z,54.49
2022-11-05T12:31:50.661Z,56.24
2022-11-05T12:38:20.591Z,56.72
2022-11-05T12:41:14.116Z,55.70
2022-11-05T13:03:32.933Z,57.16
2022-11-05T14:41:16.595Z,72.38
2022-11-05T14:44:02.822Z,73.37
2022-11-05T15:00:01.351Z,83.29
2022-11-05T15:02:35.749Z,83.73
2022-11-05T15:05:40.773Z,82.59
2022-11-05T15:15:07.585Z,86.65
2022-11-05T15:18:07.603Z,89.88
2022-11-05T15:20:57.741Z,91.14
2022-11-05T15:23:29.638Z,92.78
2022-11-05T15:34:38.091Z,98.77
2022-11-05T15:59:56.999Z,100.00
2022-11-05T16:51:22.153Z,100.00
2022-11-05T16:53:56.887Z,100.00
2022-11-05T17:05:10.316Z,100.00
2022-11-05T17:07:50.682Z,100.00
2022-11-05T17:10:23.501Z,100.00
2022-11-05T17:12:52.410Z,100.00
2022-11-05T17:15:33.802Z,100.00
2022-11-05T17:36:34.066Z,100.00
2022-11-05T17:42:15.711Z,100.00
2022-11-05T17:44:54.308Z,100.00
2022-11-05T17:48:16.019Z,100.00
2022-11-05T17:50:39.872Z,100.00
2022-11-05T17:56:22.152Z,100.00
2022-11-05T17:59:19.931Z,100.00
2022-11-05T18:14:07.626Z,100.00
2022-11-05T18:19:09.144Z,100.00
2022-11-05T18:19:37.971Z,100.00
2022-11-05T18:42:58.028Z,100.00
2022-11-05T18:48:21.149Z,100.00
2022-11-05T19:23:52.702Z,100.00
2022-11-05T19:26:34.853Z,100.00
2022-11-05T19:29:05.649Z,100.00
2022-11-05T19:41:04.130Z,100.00
2022-11-05T19:52:45.519Z,100.00
2022-11-05T20:01:11.116Z,100.00
2022-11-05T20:03:40.160Z,100.00
2022-11-05T20:10:09.885Z,100.00
2022-11-05T20:24:41.306Z,100.00
2022-11-05T20:32:35.831Z,100.00
2022-11-05T20:48:07.977Z,100.00
2022-11-05T20:57:03.547Z,100.00
2022-11-05T21:02:38.442Z,100.00
2022-11-05T22:24:07.411Z,100.00
2022-11-05T22:26:38.145Z,100.00
2022-11-05T22:29:16.813Z,100.00
2022-11-05T22:31:56.116Z,100.00
2022-11-05T22:34:39.637Z,100.00
2022-11-05T22:37:25.434Z,100.00
2022-11-05T22:39:59.910Z,100.00
2022-11-05T22:42:40.947Z,100.00
2022-11-05T22:45:18.444Z,100.00
2022-11-05T22:47:50.483Z,100.00
2022-11-05T22:50:29.600Z,100.00
2022-11-05T22:53:06.141Z,100.00
2022-11-05T22:55:39.014Z,100.00
2022-11-05T22:58:25.652Z,100.00
2022-11-05T23:00:56.060Z,100.00
2022-11-05T23:03:26.875Z,100.00
2022-11-05T23:06:06.755Z,100.00
2022-11-05T23:08:56.506Z,100.00
2022-11-05T23:11:39.312Z,100.00
2022-11-05T23:14:23.978Z,100.00
2022-11-05T23:17:10.821Z,100.00
2022-11-05T23:20:05.058Z,100.00
2022-11-05T23:22:56.077Z,100.00
2022-11-05T23:25:28.622Z,100.00
2022-11-05T23:28:00.439Z,100.00
2022-11-05T23:30:31.282Z,100.00
2022-11-05T23:33:00.370Z,100.00
2022-11-05T23:35:47.178Z,100.00
2022-11-05T23:38:35.431Z,100.00
2022-11-05T23:41:23.103Z,100.00
2022-11-05T23:44:11.455Z,100.00
2022-11-05T23:47:00.692Z,100.00
2022-11-05T23:49:32.832Z,100.00
2022-11-05T23:52:08.699Z,100.00
2022-11-05T23:54:39.221Z,100.00
2022-11-05T23:57:08.190Z,100.00
2022-11-05T23:59:40.208Z,100.00
